Portada
METAR-TAF:

METAR-TAF

Aeroports :

Aeroport de la Llavanera

Perpinyà, França

latitud: 42-44N, longitud: 002-52E, altitud: 43 m

Observació

L'informe es va fer fa 30 minuts, a les 07:00 UTC
Vent 3 kt amb direcció variable
Temperatura 24°C
Humitat 50%
Pressió 1016 hPa
Visibilitat 10 km o més
sense núvols per sota de 1500 mi sense presència de cumulonimbus.

METAR: LFMP 250700Z AUTO VRB03KT CAVOK 24/13 Q1016 NOSIG

Hora: 09:30 (07:30 UTC)

Pronòstic

L'informe es va fer fa 5 hores i 30 minuts, a les 02:00 UTC
Pronòstic vàlid del 25 a les 03 UTC al 26 a les 03 UTC
Vent 5 kt amb direcció variable
Visibilitat 10 km o més
sense núvols per sota de 1500 mi sense presència de cumulonimbus.
Evolucionant progressivament
l' 25 a les 12 UTC al 25 a les 15 UTC
Vent 10 kt del Est/Sud-Est amb ràfegues de 20 kt
Evolucionant progressivament
l' 25 a les 16 UTC al 25 a les 18 UTC
Vent 5 kt amb direcció variable

TAF: LFMP 250200Z 2503/2603 VRB05KT CAVOK BECMG 2512/2515 12010G20KT BECMG 2516/2518 VRB05KT

Observacions i pronòstics meteorològics de més de 4000 aeroports (METAR i TAF).

Les estacions disponibles són els punts grocs i vermells al mapa.

Posi el ratolí al punt desitjat per veure el nom de l'estació.

Feu clic per veure les observacions i els pronòstics meteorològics.

Per canviar el mapa: feu clic els botons verds amb una creu de color negre per apropar; al botó verd amb un guió per allunyar la imatge; o en les fletxes verdes per a mapes adjacents.


METAR-TAF: